Airfield :
LOGIN :

Register | Disclaimer

   EN    FR    IT 

 










Legend :    VFR   Marginal VFR   IFR   Intensive IFR   Very Intensive IFR
Visi :
Ceiling :
>= 8 km
>= 3000ft
5 to 8 km
1000 to 3000 ft
1500m to 5 km
500 to 1000 ft
800 to 1500m
200 to 500 ft
< 800m
< 200 ft
Symbols :   Thunderstorms  Fog  Heavy snow  Heavy precipitations  Wind > 20 kt
SIGMETs :     Misc.  Thunderstorms  Icing  Turbulence  Mountain Waves  Volcanic Ashes







- Airport Elevation : 187 ft


ETNW - Wunstorf AB

CURRENT METAR :
  • 270620Z 32008KT 9999 BKN021 14/09 Q1027 WHT WHT TEMPO GRN

EXPIRED METARs :
  • 270520Z 35007KT 9999 BKN021 14/09 Q1027 WHT WHT TEMPO GRN
  • 270420Z 33010KT 9999 BKN017 14/09 Q1027 WHT WHT TEMPO GRN

TAF TAF ETNW
Valid from the 27 at 05:00 until the 28 at 05:00 UTC


270418Z 2705/2805 34012KT 9999 NSW BKN020
TEMPO 2705/2708 33007KT 9999 NSW BKN012
BECMG 2709/2711 32012G22KT 9999 NSW SCT030
BECMG 2717/2719 33008KT 9999 NSW FEW020 SCT300
TEMPO 2802/2805 33006KT 4000 BR BKN012 BY ETGL
No reported NOTAMs for that airfield.



MET'MAP, your aeronautical weather chart ! - Copyright ORBIFLY December 2007 - Disclaimer

ORBIFLY MET'MAP TEAM :

Programming & Development : Alexandra Zaïnal
Concept & Development : Baudouin d'Aumeries
Co-Development & Prog : Marc-Olivier Méhu
Technical & hardware support : Manuel Goepfert

Contact : metmap@orbifly.com




SOURCES & CREDITS :

   NOAA